WetterOnline ( https://www.wetteronline.de )

Wetter aktuell Mittelndorf

Aktuelles Wetter: Lichtenhain/Mittelndorf (352m)

6-stündlich | Neueste Meldungen
Ortszeit Temperatur Wetter
Di, 03.08. 2:00 11.8° C fast wolkenlos
Mo, 02.08. 20:00 16.3° C bedeckt
Mo, 02.08. 14:00 17.2° C wolkig
Mo, 02.08. 8:00 13.4° C bedeckt
Mo, 02.08. 2:00 13.3° C wolkig
So, 01.08. 20:00 17.2° C bedeckt
So, 01.08. 14:00 16.2° C Regen
So, 01.08. 8:00 12.5° C leichter Regen
Ortszeit Temperatur Wetter
Di, 03.08. 3:00 11.5° C bedeckt
Di, 03.08. 2:50 11.5° C bedeckt
Di, 03.08. 2:40 11.5° C bedeckt
Di, 03.08. 2:30 11.3° C wolkig
Di, 03.08. 2:20 11.3° C wolkig
Di, 03.08. 2:10 11.7° C leicht bewölkt
Di, 03.08. 2:00 11.8° C fast wolkenlos
Di, 03.08. 1:30 12.2° C leicht bewölkt
Di, 03.08. 1:00 12.0° C leicht bewölkt
Di, 03.08. 0:30 12.5° C wolkenlos
Di, 03.08. 0:00 12.7° C wolkenlos
Ortszeit Relative Feuchte Sichtweite
Di, 03.08. 2:00 97% 45 km
Mo, 02.08. 20:00 81% 65 km
Mo, 02.08. 14:00 75% 60 km
Mo, 02.08. 8:00 94% 29 km
Mo, 02.08. 2:00 98% 17 km
So, 01.08. 20:00 77% 40 km
So, 01.08. 14:00 86% 30 km
So, 01.08. 8:00 92% 17 km
Ortszeit Relative Feuchte Sichtweite
Di, 03.08. 3:00 97% 35 km
Di, 03.08. 2:50 97% -
Di, 03.08. 2:40 98% -
Di, 03.08. 2:30 97% 29 km
Di, 03.08. 2:20 97% -
Di, 03.08. 2:10 97% -
Di, 03.08. 2:00 97% 45 km
Di, 03.08. 1:30 97% 50 km
Di, 03.08. 1:00 99% 30 km
Di, 03.08. 0:30 98% 30 km
Di, 03.08. 0:00 97% 35 km
Ortszeit Niederschlagsmenge Niederschlagsart
Di, 03.08. 2:00 0.0 l/m2 in 6 Std. -
Mo, 02.08. 20:00 1 l/m2 in 12 Std. Regen
Mo, 02.08. 14:00 0.9 l/m2 in 6 Std. Regen
Mo, 02.08. 8:00 0.1 l/m2 in 12 Std. Regen
Mo, 02.08. 2:00 0.0 l/m2 in 6 Std. -
So, 01.08. 20:00 10 l/m2 in 12 Std. Sprühregen
So, 01.08. 14:00 10 l/m2 in 6 Std. Regen
So, 01.08. 8:00 0.6 l/m2 in 12 Std. Regen
Ortszeit Niederschlagsmenge Niederschlagsart
Di, 03.08. 3:00 0.0 l/m2 in 1 Std. -
Di, 03.08. 2:50 keine Meldung -
Di, 03.08. 2:40 keine Meldung -
Di, 03.08. 2:30 0.0 l/m2 in 1 Std. -
Di, 03.08. 2:20 keine Meldung -
Di, 03.08. 2:10 keine Meldung -
Di, 03.08. 2:00 0.0 l/m2 in 1 Std. -
Di, 03.08. 1:30 0.0 l/m2 in 1 Std. -
Di, 03.08. 1:00 0.0 l/m2 in 1 Std. -
Di, 03.08. 0:30 0.0 l/m2 in 1 Std. -
Di, 03.08. 0:00 0.0 l/m2 in 1 Std. -
Ortszeit Stärke Spitze Richtung
km/h Bft. km/h Grad Sektor
Di, 03.08. 2:00 4 1 11 70° O
Mo, 02.08. 20:00 7 2 32 190° S
Mo, 02.08. 14:00 11 2 28 260° W
Mo, 02.08. 8:00 7 2 18 240° SW
Mo, 02.08. 2:00 6 1 15 230° SW
So, 01.08. 20:00 6 1 22 160° S
So, 01.08. 14:00 7 2 11 300° NW
So, 01.08. 8:00 6 1 15 40° NO
Ortszeit Stärke Spitze Richtung
km/h Bft. km/h Grad Sektor
Di, 03.08. 3:00 4 1 7 100° O
Di, 03.08. 2:50 4 1 - 100° O
Di, 03.08. 2:40 6 1 - 110° O
Di, 03.08. 2:30 4 1 7 120° SO
Di, 03.08. 2:20 4 1 - 120° SO
Di, 03.08. 2:10 4 1 - 100° O
Di, 03.08. 2:00 4 1 11 70° O
Di, 03.08. 1:30 7 2 7 130° SO
Di, 03.08. 1:00 7 2 7 130° SO
Di, 03.08. 0:30 4 1 4 30° NO
Di, 03.08. 0:00 4 1 7 40° NO
Ortszeit Untergrenze Bedeckung Gattung
total tief tief mittel hoch
Di, 03.08. 2:00 3000 m 1/8 1/8 - - -
Mo, 02.08. 20:00 3000 m 8/8 8/8 - - -
Mo, 02.08. 14:00 630 m 8/8 1/8 - - -
Mo, 02.08. 8:00 450 m 8/8 8/8 - - -
Mo, 02.08. 2:00 8400 m 7/8 0/8 - - -
So, 01.08. 20:00 4800 m 8/8 8/8 - - -
So, 01.08. 14:00 240 m 8/8 8/8 - - -
So, 01.08. 8:00 60 m 8/8 8/8 - - -
Ortszeit Bedeckungsgrad in Achtel und Wolkenuntergrenze
Di, 03.08. 3:00 8(2100m) 8(3900m)
Di, 03.08. 2:50 8(2100m) 8(3900m)
Di, 03.08. 2:40 8(2100m) 8(4200m)
Di, 03.08. 2:30 5(2100m) 5(4200m)
Di, 03.08. 2:20 5(2100m) 5(4200m)
Di, 03.08. 2:10 2(2100m) 2(4200m)
Di, 03.08. 2:00 1(3000m)
Di, 03.08. 1:30 2(3000m)
Di, 03.08. 1:00 3(3000m)
Di, 03.08. 0:30 keine Wolken
Di, 03.08. 0:00 keine Wolken
Ortszeit Luftdruck NN (hPa) Tendenz (hPa in 3 Std.)
Di, 03.08. 2:00 1015 + 0,3
Mo, 02.08. 20:00 1014 + 0,7
Mo, 02.08. 14:00 1013 + 0,3
Mo, 02.08. 8:00 1012 + 1,4
Mo, 02.08. 2:00 1010 + 0,4
So, 01.08. 20:00 1008 - 0,5
So, 01.08. 14:00 1009 - 0,3
So, 01.08. 8:00 1009 - 0,5
Ortszeit Luftdruck NN (hPa) Tendenz (hPa in 3 Std.)
Di, 03.08. 3:00 1015 + 0,1
Di, 03.08. 2:50 1015 keine Meldung
Di, 03.08. 2:40 1015 keine Meldung
Di, 03.08. 2:30 1016 + 0,3
Di, 03.08. 2:20 1016 keine Meldung
Di, 03.08. 2:10 1015 keine Meldung
Di, 03.08. 2:00 1015 + 0,3
Di, 03.08. 1:30 1015 + 0,3
Di, 03.08. 1:00 1015 + 0,4
Di, 03.08. 0:30 1015 + 0,6
Di, 03.08. 0:00 1015 + 0,7
Ortszeit Schneehöhe (cm)
Di, 03.08. 2:00 -
Mo, 02.08. 20:00 -
Mo, 02.08. 14:00 -
Mo, 02.08. 8:00 -
Mo, 02.08. 2:00 -
So, 01.08. 20:00 -
So, 01.08. 14:00 -
So, 01.08. 8:00 -
Ortszeit Schneehöhe (cm)
Di, 03.08. 3:00 -
Di, 03.08. 2:50 -
Di, 03.08. 2:40 -
Di, 03.08. 2:30 -
Di, 03.08. 2:20 -
Di, 03.08. 2:10 -
Di, 03.08. 2:00 -
Di, 03.08. 1:30 -
Di, 03.08. 1:00 -
Di, 03.08. 0:30 -
Di, 03.08. 0:00 -
Link zu dieser Seite / Seite empfehlen

Das Wetter in ...